Time;durP1;ratioP1;P1;durP2;ratioP2;P2;SDS_P1;SDS_P2;PMS_P1;PMS_P2;Temp;Humidity;BMP_temperature;BMP_pressure;BME280_temperature;BME280_humidity;BME280_pressure;Samples;Min_cycle;Max_cycle;Signal;HPM_P1;HPM_P2
2021/08/17 00:00:43;;;;;;;6.72;3.47;;;16.20;87.60;;;;;;4975376;28;20066;-76
2021/08/17 00:03:10;;;;;;;8.20;3.00;;;16.10;88.20;;;;;;4958471;28;20053;-76
2021/08/17 00:05:38;;;;;;;8.98;2.90;;;16.10;88.10;;;;;;4958385;28;20368;-77
2021/08/17 00:08:04;;;;;;;6.40;3.13;;;16.00;88.40;;;;;;4958144;28;20023;-76
2021/08/17 00:10:30;;;;;;;7.88;3.25;;;15.90;88.90;;;;;;4957967;28;20023;-76
2021/08/17 00:12:55;;;;;;;7.80;3.10;;;15.80;89.10;;;;;;4957746;28;20027;-76
2021/08/17 00:15:21;;;;;;;4.88;2.65;;;15.70;89.10;;;;;;4957944;28;20554;-77
2021/08/17 00:17:47;;;;;;;5.90;2.88;;;15.70;89.30;;;;;;4957774;28;20029;-76
2021/08/17 00:20:13;;;;;;;4.80;2.55;;;15.70;89.20;;;;;;4958197;28;20023;-77
2021/08/17 00:22:40;;;;;;;6.07;2.70;;;15.60;89.30;;;;;;4974687;28;20106;-79
2021/08/17 00:25:07;;;;;;;4.97;3.00;;;15.60;88.50;;;;;;4957819;28;20030;-76
2021/08/17 00:27:33;;;;;;;4.82;2.55;;;15.60;88.70;;;;;;4957705;28;20057;-76
2021/08/17 00:29:59;;;;;;;4.97;2.47;;;15.60;88.60;;;;;;4974601;28;20062;-76
2021/08/17 00:32:24;;;;;;;6.10;2.70;;;15.50;88.70;;;;;;4958056;28;20058;-77
2021/08/17 00:34:50;;;;;;;4.43;2.50;;;15.40;89.00;;;;;;4974620;28;20523;-77
2021/08/17 00:37:20;;;;;;;5.90;2.70;;;15.40;89.70;;;;;;4975257;28;20452;-76
2021/08/17 00:39:46;;;;;;;6.40;3.13;;;15.40;89.00;;;;;;4957589;28;20026;-77
2021/08/17 00:42:12;;;;;;;6.55;2.95;;;15.50;88.80;;;;;;4958164;28;20106;-76
2021/08/17 00:44:38;;;;;;;7.82;3.60;;;15.50;89.00;;;;;;4975131;28;20018;-77
2021/08/17 00:47:04;;;;;;;6.72;3.20;;;15.50;88.80;;;;;;4975055;28;20034;-77
2021/08/17 00:49:31;;;;;;;6.30;2.92;;;15.50;89.00;;;;;;4974344;28;20379;-76
2021/08/17 00:51:59;;;;;;;3.83;2.40;;;15.30;89.40;;;;;;4957269;28;20019;-77
2021/08/17 00:54:26;;;;;;;8.07;3.10;;;15.30;89.50;;;;;;4957744;28;20459;-76
2021/08/17 00:56:53;;;;;;;7.55;2.50;;;15.40;89.00;;;;;;4957075;28;20030;-77
2021/08/17 00:59:19;;;;;;;7.00;2.90;;;15.40;89.20;;;;;;4957595;28;20077;-76
2021/08/17 01:01:44;;;;;;;5.78;2.78;;;15.40;89.10;;;;;;4974213;28;20412;-77
2021/08/17 01:04:10;;;;;;;6.03;2.70;;;15.40;89.80;;;;;;4975356;28;20030;-77
2021/08/17 01:06:36;;;;;;;6.07;2.78;;;15.40;89.50;;;;;;4957519;28;20418;-77
2021/08/17 01:09:03;;;;;;;5.00;2.85;;;15.40;89.80;;;;;;4974342;28;20031;-76
2021/08/17 01:11:29;;;;;;;7.07;2.95;;;15.30;90.20;;;;;;4974600;28;20097;-76
2021/08/17 01:13:55;;;;;;;6.05;3.05;;;15.30;90.10;;;;;;4956839;28;20114;-76
2021/08/17 01:16:22;;;;;;;5.97;2.50;;;15.30;90.00;;;;;;4956994;28;20047;-76
2021/08/17 01:18:48;;;;;;;7.40;2.58;;;15.30;89.60;;;;;;4956968;28;20078;-76
2021/08/17 01:21:15;;;;;;;5.47;2.40;;;15.30;89.20;;;;;;4957466;28;20023;-76
2021/08/17 01:23:42;;;;;;;4.03;2.28;;;15.30;89.20;;;;;;4974634;28;20101;-76
2021/08/17 01:26:08;;;;;;;5.63;2.67;;;15.20;89.40;;;;;;4956890;28;20023;-76
2021/08/17 01:28:33;;;;;;;4.50;2.42;;;15.20;89.40;;;;;;4957564;28;20027;-76
2021/08/17 01:31:04;;;;;;;4.80;2.63;;;15.20;90.40;;;;;;4956969;28;20468;-76
2021/08/17 01:33:31;;;;;;;5.38;2.42;;;15.20;90.20;;;;;;4974437;28;20027;-75
2021/08/17 01:35:56;;;;;;;5.47;2.67;;;15.20;90.10;;;;;;4974001;28;20491;-76
2021/08/17 01:38:23;;;;;;;6.05;2.42;;;15.20;90.20;;;;;;4974415;28;20022;-75
2021/08/17 01:40:48;;;;;;;7.20;2.83;;;15.20;90.10;;;;;;4956605;28;20046;-75
2021/08/17 01:43:15;;;;;;;5.00;2.60;;;15.10;90.20;;;;;;4957232;28;20023;-75
2021/08/17 01:45:42;;;;;;;5.07;2.90;;;15.10;90.40;;;;;;4956718;28;20463;-77
2021/08/17 01:48:10;;;;;;;4.68;2.40;;;15.10;90.40;;;;;;4973863;28;20027;-76
2021/08/17 01:50:36;;;;;;;7.38;2.70;;;15.00;90.40;;;;;;4974203;28;20089;-76
2021/08/17 01:53:02;;;;;;;5.15;2.28;;;15.00;90.40;;;;;;4956547;28;20023;-76
2021/08/17 01:55:28;;;;;;;5.18;2.17;;;14.90;90.60;;;;;;4974241;28;20035;-76
2021/08/17 01:57:53;;;;;;;4.13;2.22;;;14.90;90.50;;;;;;4956645;28;20027;-76
2021/08/17 02:00:19;;;;;;;4.13;2.15;;;14.90;90.70;;;;;;4974016;28;20172;-76
2021/08/17 02:02:45;;;;;;;4.10;2.05;;;14.90;90.60;;;;;;4959602;28;20526;-75
2021/08/17 02:05:11;;;;;;;6.13;2.53;;;14.90;90.60;;;;;;4960616;28;20114;-75
2021/08/17 02:07:37;;;;;;;4.18;2.42;;;14.90;90.40;;;;;;4960606;28;20053;-75
2021/08/17 02:10:05;;;;;;;4.55;2.53;;;14.90;90.50;;;;;;4977628;28;20023;-76
2021/08/17 02:12:31;;;;;;;4.85;2.50;;;14.90;90.60;;;;;;4960347;28;20026;-76
2021/08/17 02:14:56;;;;;;;7.65;2.40;;;14.90;90.60;;;;;;4959988;28;20047;-75
2021/08/17 02:17:22;;;;;;;4.82;2.58;;;14.80;90.80;;;;;;4960135;28;20035;-75
2021/08/17 02:19:48;;;;;;;7.85;2.63;;;14.80;91.00;;;;;;4960144;28;20015;-76
2021/08/17 02:22:14;;;;;;;5.70;2.53;;;14.90;90.90;;;;;;4977606;28;20022;-75
2021/08/17 02:24:40;;;;;;;5.03;2.25;;;14.90;90.80;;;;;;4977465;28;20089;-76
2021/08/17 02:27:06;;;;;;;5.43;2.40;;;14.90;90.80;;;;;;4977320;28;20213;-76
2021/08/17 02:29:32;;;;;;;5.40;2.22;;;14.90;90.70;;;;;;4960425;28;20025;-76
2021/08/17 02:31:57;;;;;;;4.95;2.60;;;14.90;90.70;;;;;;4976775;28;20444;-76
2021/08/17 02:34:23;;;;;;;5.65;2.53;;;14.80;90.80;;;;;;4960172;28;20371;-76
2021/08/17 02:36:49;;;;;;;7.38;2.88;;;14.80;91.00;;;;;;4959634;28;20031;-77
2021/08/17 02:39:14;;;;;;;8.32;2.58;;;14.80;91.10;;;;;;4977207;28;20081;-76
2021/08/17 02:41:40;;;;;;;5.70;2.38;;;14.80;91.00;;;;;;4960293;28;20095;-76
2021/08/17 02:44:05;;;;;;;5.55;2.30;;;14.70;91.10;;;;;;4959775;28;20026;-75
2021/08/17 02:46:31;;;;;;;6.20;2.60;;;14.70;91.00;;;;;;4977437;28;20039;-76
2021/08/17 02:48:57;;;;;;;6.88;2.78;;;14.70;91.00;;;;;;4959535;28;20030;-76
2021/08/17 02:51:22;;;;;;;5.60;2.78;;;14.60;91.10;;;;;;4960351;28;20023;-76
2021/08/17 02:53:48;;;;;;;6.32;3.00;;;14.60;91.30;;;;;;4959821;28;20092;-79
2021/08/17 02:56:14;;;;;;;7.25;3.08;;;14.50;91.40;;;;;;4977258;28;20031;-76
2021/08/17 02:58:39;;;;;;;5.00;2.65;;;14.50;91.40;;;;;;4977218;28;20490;-76
2021/08/17 03:01:05;;;;;;;6.57;2.72;;;14.50;91.50;;;;;;4959464;28;20027;-76
2021/08/17 03:03:30;;;;;;;6.05;2.88;;;14.50;91.60;;;;;;4959610;28;20097;-76
2021/08/17 03:05:56;;;;;;;3.95;2.58;;;14.40;91.60;;;;;;4959486;28;20023;-76
2021/08/17 03:08:22;;;;;;;7.45;2.83;;;14.40;91.80;;;;;;4959799;28;20018;-76
2021/08/17 03:10:47;;;;;;;6.88;2.97;;;14.40;91.80;;;;;;4960046;28;20050;-76
2021/08/17 03:13:13;;;;;;;8.18;3.22;;;14.30;91.90;;;;;;4976035;28;20037;-76
2021/08/17 03:15:39;;;;;;;6.78;3.60;;;14.30;92.00;;;;;;4976764;28;20063;-76
2021/08/17 03:18:07;;;;;;;7.18;3.25;;;14.20;92.10;;;;;;4976369;28;20023;-76
2021/08/17 03:20:34;;;;;;;6.05;2.85;;;14.20;92.20;;;;;;4959480;28;20057;-76
2021/08/17 03:23:00;;;;;;;8.30;3.75;;;14.20;92.30;;;;;;4959260;28;20026;-76
2021/08/17 03:25:26;;;;;;;7.88;3.53;;;14.20;92.30;;;;;;4976697;28;20113;-76
2021/08/17 03:27:53;;;;;;;6.80;3.30;;;14.10;92.30;;;;;;4959028;28;20018;-77
2021/08/17 03:30:20;;;;;;;5.97;3.05;;;14.10;92.30;;;;;;4959357;28;20499;-76
2021/08/17 03:32:46;;;;;;;7.40;3.47;;;14.10;92.40;;;;;;4959279;28;20027;-76
2021/08/17 03:35:13;;;;;;;6.25;3.28;;;14.10;92.50;;;;;;4975948;28;20035;-76
2021/08/17 03:37:38;;;;;;;10.63;3.60;;;14.00;92.50;;;;;;4976492;28;20094;-76
2021/08/17 03:40:07;;;;;;;8.13;3.47;;;14.10;92.50;;;;;;4975956;28;20098;-76
2021/08/17 03:42:33;;;;;;;8.32;3.67;;;14.10;92.50;;;;;;4959365;28;20025;-76
2021/08/17 03:44:59;;;;;;;10.18;3.50;;;14.00;92.60;;;;;;4958633;28;20034;-76
2021/08/17 03:47:25;;;;;;;10.90;3.72;;;14.00;92.60;;;;;;4959161;28;20102;-76
2021/08/17 03:49:51;;;;;;;8.63;3.60;;;14.10;92.60;;;;;;4959010;28;20111;-76
2021/08/17 03:52:17;;;;;;;9.90;3.50;;;14.00;92.60;;;;;;4958417;28;20019;-76
2021/08/17 03:54:42;;;;;;;8.27;3.88;;;14.00;92.60;;;;;;4958586;28;20048;-76
2021/08/17 03:57:08;;;;;;;6.35;3.28;;;14.00;92.60;;;;;;4958126;28;20089;-75
2021/08/17 03:59:33;;;;;;;9.05;3.60;;;14.10;92.70;;;;;;4958713;28;20019;-75
2021/08/17 04:01:59;;;;;;;7.40;3.70;;;14.00;92.70;;;;;;4975293;28;20023;-76
2021/08/17 04:04:25;;;;;;;6.55;3.60;;;14.10;92.80;;;;;;4958662;28;20034;-76
2021/08/17 04:06:50;;;;;;;7.75;3.72;;;14.00;92.90;;;;;;4975602;28;20023;-76
2021/08/17 04:09:16;;;;;;;8.88;3.38;;;14.00;92.90;;;;;;4975017;28;20029;-75
2021/08/17 04:11:41;;;;;;;7.60;3.97;;;14.00;92.90;;;;;;4975756;28;20030;-76
2021/08/17 04:14:07;;;;;;;7.95;3.65;;;14.00;93.00;;;;;;4975120;28;20031;-76
2021/08/17 04:16:33;;;;;;;9.35;4.00;;;13.90;93.10;;;;;;4958360;28;20498;-75
2021/08/17 04:18:58;;;;;;;8.07;3.97;;;13.90;93.20;;;;;;4957801;28;20026;-76
2021/08/17 04:21:24;;;;;;;11.57;4.60;;;13.90;93.20;;;;;;4958023;28;20480;-76
2021/08/17 04:23:50;;;;;;;8.55;4.07;;;13.90;93.30;;;;;;4973588;28;20023;-77
2021/08/17 04:26:15;;;;;;;10.13;4.00;;;13.90;93.20;;;;;;4962817;28;20411;-76
2021/08/17 04:28:41;;;;;;;9.70;4.72;;;13.80;93.40;;;;;;4972060;28;20026;-76
2021/08/17 04:31:06;;;;;;;10.60;5.30;;;13.90;93.40;;;;;;4961001;28;20364;-76
2021/08/17 04:33:32;;;;;;;12.63;5.72;;;13.90;93.40;;;;;;4972669;28;20402;-76
2021/08/17 04:35:57;;;;;;;12.63;5.72;;;13.90;93.40;;;;;;4965607;28;20030;-77
2021/08/17 04:38:23;;;;;;;9.65;5.03;;;13.90;93.40;;;;;;4976643;28;20454;-76
2021/08/17 04:40:49;;;;;;;10.43;4.75;;;13.90;93.30;;;;;;4979534;28;20026;-76
2021/08/17 04:43:14;;;;;;;10.82;4.60;;;13.90;93.40;;;;;;4975507;28;20537;-76
2021/08/17 04:45:40;;;;;;;11.27;4.40;;;13.90;93.40;;;;;;4965945;28;20452;-76
2021/08/17 04:48:06;;;;;;;9.93;4.80;;;14.00;93.30;;;;;;4974287;28;20101;-75
2021/08/17 04:50:31;;;;;;;9.18;4.75;;;14.00;93.30;;;;;;4975147;28;20034;-76
2021/08/17 04:52:57;;;;;;;10.38;5.50;;;14.00;93.10;;;;;;4957167;28;20022;-76
2021/08/17 04:55:23;;;;;;;11.73;5.82;;;14.00;93.10;;;;;;4957544;28;20038;-76
2021/08/17 04:57:49;;;;;;;11.93;5.85;;;14.00;93.10;;;;;;4957725;28;20034;-75
2021/08/17 05:00:16;;;;;;;9.40;4.38;;;14.00;93.20;;;;;;4974377;28;20869;-75
2021/08/17 05:02:42;;;;;;;10.05;4.15;;;14.00;93.30;;;;;;4957787;28;20526;-76
2021/08/17 05:05:08;;;;;;;10.43;4.50;;;13.90;93.30;;;;;;4974192;28;20046;-76
2021/08/17 05:07:37;;;;;;;9.77;4.07;;;14.00;93.20;;;;;;4974384;28;20031;-77
2021/08/17 05:10:05;;;;;;;7.28;4.13;;;14.10;93.20;;;;;;4974128;28;20033;-76
2021/08/17 05:12:31;;;;;;;10.20;5.13;;;14.10;93.10;;;;;;4957587;28;20042;-76
2021/08/17 05:14:57;;;;;;;9.07;4.57;;;14.00;93.10;;;;;;4959907;28;20054;-77
2021/08/17 05:17:22;;;;;;;8.63;4.10;;;14.00;93.20;;;;;;4976659;28;20030;-76
2021/08/17 05:19:48;;;;;;;7.93;3.78;;;14.10;93.20;;;;;;4976551;28;20089;-76
2021/08/17 05:22:14;;;;;;;9.52;4.40;;;14.10;93.30;;;;;;4975580;28;20026;-77
2021/08/17 05:24:39;;;;;;;9.40;4.20;;;14.20;93.30;;;;;;4993434;28;20113;-76
2021/08/17 05:27:05;;;;;;;13.27;5.20;;;14.20;93.10;;;;;;4976285;28;20026;-77
2021/08/17 05:29:30;;;;;;;10.93;4.35;;;14.30;93.40;;;;;;4976880;28;20422;-76
2021/08/17 05:31:56;;;;;;;10.43;4.13;;;14.30;93.10;;;;;;4994492;28;20110;-76
2021/08/17 05:34:22;;;;;;;8.50;4.30;;;14.30;93.10;;;;;;4976170;28;20030;-76
2021/08/17 05:36:47;;;;;;;9.63;3.95;;;14.30;93.00;;;;;;4979785;28;20030;-76
2021/08/17 05:39:13;;;;;;;8.98;4.03;;;14.30;93.00;;;;;;4979912;28;20395;-76
2021/08/17 05:41:38;;;;;;;9.48;4.57;;;14.40;93.10;;;;;;4980833;28;20034;-76
2021/08/17 05:44:04;;;;;;;7.45;3.78;;;14.50;92.90;;;;;;4981210;28;20026;-77
2021/08/17 05:46:30;;;;;;;9.85;4.00;;;14.40;92.90;;;;;;4991422;28;20536;-77
2021/08/17 05:48:55;;;;;;;9.35;4.78;;;14.50;93.00;;;;;;4999253;28;20034;-77
2021/08/17 05:51:21;;;;;;;11.27;4.47;;;14.50;93.00;;;;;;4997881;28;20033;-76
2021/08/17 05:53:46;;;;;;;10.68;4.60;;;14.50;93.10;;;;;;4974429;28;20464;-76
2021/08/17 05:56:12;;;;;;;8.35;4.07;;;14.60;93.10;;;;;;4997850;28;20035;-77
2021/08/17 05:58:39;;;;;;;10.57;5.13;;;14.50;92.90;;;;;;4997776;28;20038;-76
2021/08/17 06:01:05;;;;;;;8.27;4.13;;;14.60;92.90;;;;;;4982107;28;20034;-76
2021/08/17 06:03:30;;;;;;;8.40;4.40;;;14.60;92.80;;;;;;4997155;28;20517;-76
2021/08/17 06:05:59;;;;;;;9.70;4.57;;;14.60;92.70;;;;;;4979895;28;20491;-76
2021/08/17 06:08:25;;;;;;;10.18;4.40;;;14.60;93.00;;;;;;4979462;28;20027;-77
2021/08/17 06:10:51;;;;;;;11.57;4.25;;;14.60;92.80;;;;;;4980446;28;20033;-77
2021/08/17 06:13:17;;;;;;;8.27;4.32;;;14.60;92.90;;;;;;4976507;28;20027;-77
2021/08/17 06:15:42;;;;;;;13.07;4.95;;;14.50;92.90;;;;;;4960600;28;20070;-77
2021/08/17 06:18:08;;;;;;;9.85;4.75;;;14.50;92.90;;;;;;4976838;28;20097;-78
2021/08/17 06:20:35;;;;;;;14.75;5.13;;;14.60;92.90;;;;;;4966093;28;20023;-77
2021/08/17 06:23:02;;;;;;;11.75;4.85;;;14.60;93.00;;;;;;4992496;28;20034;-80
2021/08/17 06:25:29;;;;;;;12.27;5.47;;;14.60;93.00;;;;;;4979207;28;20164;-77
2021/08/17 06:27:55;;;;;;;14.32;5.68;;;14.60;93.00;;;;;;4976194;28;20033;-78
2021/08/17 06:30:21;;;;;;;10.13;4.57;;;14.70;92.90;;;;;;4978720;28;20116;-78
2021/08/17 06:32:46;;;;;;;10.68;4.63;;;14.70;93.00;;;;;;4995691;28;20052;-80
2021/08/17 06:35:12;;;;;;;11.38;5.28;;;14.80;93.00;;;;;;4995231;28;20030;-78
2021/08/17 06:37:38;;;;;;;13.48;5.90;;;14.90;93.20;;;;;;4961287;28;20035;-78
2021/08/17 06:40:04;;;;;;;10.85;5.07;;;14.90;93.00;;;;;;4980006;28;20410;-79
2021/08/17 06:42:29;;;;;;;12.45;5.10;;;15.00;93.20;;;;;;4981449;28;20530;-76
2021/08/17 06:44:55;;;;;;;11.20;5.22;;;15.00;93.20;;;;;;4959620;28;20044;-77
2021/08/17 06:47:21;;;;;;;13.05;5.95;;;15.00;93.20;;;;;;4975298;28;20086;-77
2021/08/17 06:49:46;;;;;;;11.07;5.72;;;15.10;93.10;;;;;;4976506;28;20027;-77
2021/08/17 06:52:12;;;;;;;11.63;5.65;;;15.00;92.70;;;;;;4973542;28;20015;-77
2021/08/17 06:54:38;;;;;;;13.00;5.75;;;15.00;92.50;;;;;;4978179;28;20090;-77
2021/08/17 06:57:03;;;;;;;15.52;5.47;;;15.00;92.60;;;;;;4985541;28;20117;-77
2021/08/17 06:59:29;;;;;;;13.07;6.35;;;15.00;92.50;;;;;;4994849;28;20034;-76
2021/08/17 07:01:55;;;;;;;12.70;5.53;;;15.10;92.50;;;;;;4994075;28;20115;-77
2021/08/17 07:04:21;;;;;;;15.43;5.50;;;15.00;92.00;;;;;;5000353;28;20053;-77
2021/08/17 07:06:46;;;;;;;14.77;6.28;;;15.10;92.00;;;;;;5013308;28;20168;-77
2021/08/17 07:09:12;;;;;;;13.70;6.07;;;15.00;91.80;;;;;;5012453;28;20075;-77
2021/08/17 07:11:38;;;;;;;10.85;5.78;;;15.10;91.90;;;;;;4983215;28;20117;-77
2021/08/17 07:14:03;;;;;;;12.07;5.72;;;15.10;91.90;;;;;;4995855;28;20101;-77
2021/08/17 07:16:29;;;;;;;16.48;7.00;;;15.10;91.60;;;;;;4977172;28;20065;-77
2021/08/17 07:18:55;;;;;;;13.32;5.95;;;15.10;91.90;;;;;;4977663;28;20030;-77
2021/08/17 07:21:21;;;;;;;12.52;5.60;;;15.20;91.80;;;;;;4974540;28;20391;-77
2021/08/17 07:23:46;;;;;;;16.73;7.15;;;15.10;91.70;;;;;;4992603;28;20023;-76
2021/08/17 07:26:12;;;;;;;13.80;6.03;;;15.10;91.90;;;;;;4980915;28;20150;-78
2021/08/17 07:28:38;;;;;;;15.55;5.55;;;15.20;91.50;;;;;;4980779;28;20031;-78
2021/08/17 07:31:04;;;;;;;15.43;6.70;;;15.20;91.50;;;;;;4996587;28;20125;-77
2021/08/17 07:33:30;;;;;;;14.02;6.18;;;15.30;91.50;;;;;;4998446;28;20014;-77
2021/08/17 07:35:56;;;;;;;13.98;6.13;;;15.30;91.20;;;;;;4994949;28;20076;-77
2021/08/17 07:38:21;;;;;;;10.98;5.47;;;15.40;90.80;;;;;;4994642;28;20026;-77
2021/08/17 07:40:47;;;;;;;14.15;6.00;;;15.50;90.40;;;;;;4992269;28;20078;-77
2021/08/17 07:43:13;;;;;;;13.45;5.95;;;15.50;90.90;;;;;;4970026;28;20395;-77
2021/08/17 07:45:39;;;;;;;14.40;6.68;;;15.50;90.40;;;;;;4977216;28;20044;-77
2021/08/17 07:48:05;;;;;;;13.30;6.05;;;15.60;90.20;;;;;;5002506;28;20030;-77
2021/08/17 07:50:31;;;;;;;13.02;6.50;;;15.60;90.00;;;;;;4999989;28;20037;-77
2021/08/17 07:52:57;;;;;;;12.63;6.40;;;15.70;90.00;;;;;;4978420;28;20383;-77
2021/08/17 07:55:22;;;;;;;14.18;6.18;;;15.80;88.40;;;;;;4971649;28;20388;-77
2021/08/17 07:57:48;;;;;;;17.17;6.70;;;16.00;87.30;;;;;;4977180;28;20458;-77
2021/08/17 08:00:15;;;;;;;12.13;5.53;;;16.10;86.70;;;;;;4975846;28;20109;-77
2021/08/17 08:02:40;;;;;;;13.05;5.85;;;16.20;85.40;;;;;;4995816;28;20046;-78
2021/08/17 08:05:07;;;;;;;14.07;6.38;;;16.30;84.80;;;;;;4976605;28;20022;-78
2021/08/17 08:07:33;;;;;;;12.43;6.25;;;16.30;85.20;;;;;;4976306;28;20062;-77
2021/08/17 08:09:58;;;;;;;12.23;5.88;;;16.40;85.70;;;;;;4976967;28;20054;-77
2021/08/17 08:12:24;;;;;;;10.45;5.60;;;16.50;85.20;;;;;;4993584;28;20840;-77
2021/08/17 08:14:50;;;;;;;13.25;6.03;;;16.50;84.60;;;;;;4993875;28;20046;-77
2021/08/17 08:17:16;;;;;;;11.55;5.40;;;16.50;82.70;;;;;;4976296;28;20486;-78
2021/08/17 08:19:41;;;;;;;15.82;6.22;;;16.60;84.80;;;;;;5008676;28;20026;-77
2021/08/17 08:22:08;;;;;;;10.75;5.32;;;16.60;82.50;;;;;;4976385;28;20121;-77
2021/08/17 08:24:35;;;;;;;10.82;5.30;;;16.70;81.80;;;;;;4993055;28;20041;-77
2021/08/17 08:27:00;;;;;;;11.10;5.32;;;16.70;82.20;;;;;;4976724;28;20030;-77
2021/08/17 08:29:27;;;;;;;10.18;5.35;;;16.70;81.30;;;;;;5008775;28;20084;-75
2021/08/17 08:31:53;;;;;;;12.90;5.40;;;16.70;80.90;;;;;;5009505;28;20032;-76
2021/08/17 08:34:19;;;;;;;11.32;4.78;;;16.80;80.80;;;;;;4978153;28;20030;-76
2021/08/17 08:36:45;;;;;;;13.52;5.60;;;16.80;80.30;;;;;;4978275;28;20041;-76
2021/08/17 08:39:10;;;;;;;10.02;5.32;;;16.90;80.60;;;;;;4980102;28;20113;-76
2021/08/17 08:41:39;;;;;;;11.52;5.20;;;17.00;80.20;;;;;;4982327;28;20451;-76
2021/08/17 08:44:04;;;;;;;10.90;5.05;;;17.00;80.00;;;;;;4983013;28;20084;-76
2021/08/17 08:46:30;;;;;;;11.38;5.40;;;17.10;81.50;;;;;;4993401;28;20038;-76
2021/08/17 08:48:56;;;;;;;12.52;5.18;;;17.10;81.00;;;;;;4975648;28;20526;-78
2021/08/17 08:51:22;;;;;;;10.52;5.32;;;17.10;80.90;;;;;;4999712;28;20030;-76
2021/08/17 08:53:49;;;;;;;12.60;6.03;;;17.10;80.50;;;;;;4975981;28;20058;-76
2021/08/17 08:56:15;;;;;;;11.43;5.65;;;17.00;81.20;;;;;;4980971;28;20088;-78
2021/08/17 08:58:42;;;;;;;10.52;5.50;;;17.00;81.40;;;;;;4994342;28;20036;-77
2021/08/17 09:01:12;;;;;;;11.25;5.50;;;17.00;80.80;;;;;;4995900;28;20026;-77
2021/08/17 09:03:47;;;;;;;10.55;5.70;;;17.00;81.20;;;;;;4974989;28;20045;-75
2021/08/17 09:06:23;;;;;;;11.77;5.38;;;17.00;80.90;;;;;;4982999;28;20030;-77
2021/08/17 09:09:06;;;;;;;10.27;5.55;;;17.00;80.90;;;;;;4972409;28;20471;-77
2021/08/17 09:11:32;;;;;;;13.25;5.97;;;17.00;79.90;;;;;;4954291;28;20526;-76
2021/08/17 09:14:17;;;;;;;11.85;5.75;;;17.00;80.60;;;;;;5009009;28;20026;-77
2021/08/17 09:16:44;;;;;;;12.00;5.20;;;17.10;80.00;;;;;;5001561;28;20053;-77
2021/08/17 09:19:22;;;;;;;13.35;5.75;;;17.20;79.90;;;;;;4994668;28;20117;-77
2021/08/17 09:21:48;;;;;;;10.77;5.97;;;17.30;79.80;;;;;;4991005;28;20471;-76
2021/08/17 09:24:29;;;;;;;10.57;5.78;;;17.30;79.30;;;;;;4997449;28;20037;-77
2021/08/17 09:26:59;;;;;;;13.23;6.13;;;17.50;79.60;;;;;;4995480;28;20030;-78
2021/08/17 09:29:28;;;;;;;11.90;5.68;;;17.60;80.00;;;;;;4971189;28;20030;-77
2021/08/17 09:33:43;;;;;;;10.63;5.70;;;17.50;77.30;;;;;;5084839;28;20410;-78
2021/08/17 09:36:10;;;;;;;12.98;5.63;;;17.60;78.90;;;;;;5069708;28;20086;-77
2021/08/17 09:38:36;;;;;;;12.75;6.13;;;17.60;78.50;;;;;;5068558;28;20627;-78
2021/08/17 09:41:22;;;;;;;11.27;5.88;;;17.60;78.40;;;;;;5068289;28;20033;-77
2021/08/17 09:44:06;;;;;;;13.35;5.65;;;17.50;77.90;;;;;;5083561;28;20029;-77
2021/08/17 09:46:34;;;;;;;10.15;5.32;;;17.50;79.00;;;;;;5067459;28;20027;-77
2021/08/17 09:49:19;;;;;;;11.63;5.68;;;17.50;78.30;;;;;;5066663;28;20079;-79
2021/08/17 09:51:45;;;;;;;9.88;5.32;;;17.60;77.70;;;;;;5085374;28;20123;-79
2021/08/17 09:54:13;;;;;;;11.57;5.10;;;17.70;78.10;;;;;;5068180;28;20021;-78
2021/08/17 09:56:39;;;;;;;12.77;5.30;;;17.80;77.50;;;;;;5068584;28;20033;-78
2021/08/17 09:59:05;;;;;;;12.82;6.10;;;17.90;77.60;;;;;;5068879;28;20484;-77
2021/08/17 10:01:31;;;;;;;10.90;5.75;;;18.00;76.70;;;;;;5067612;28;20048;-79
2021/08/17 10:03:59;;;;;;;13.00;6.15;;;17.90;77.00;;;;;;5069472;28;20056;-78
2021/08/17 10:06:26;;;;;;;9.65;4.75;;;18.00;76.70;;;;;;5067720;28;20111;-79
2021/08/17 10:08:54;;;;;;;11.88;5.90;;;18.00;76.60;;;;;;5066837;28;20055;-79
2021/08/17 10:11:20;;;;;;;12.70;5.57;;;18.10;76.70;;;;;;5065249;28;20112;-79
2021/08/17 10:13:46;;;;;;;12.00;5.93;;;18.10;76.50;;;;;;5067681;28;20028;-77
2021/08/17 10:16:19;;;;;;;13.98;5.72;;;18.00;76.40;;;;;;5067772;28;20479;-75
2021/08/17 10:18:46;;;;;;;12.23;6.40;;;18.00;76.50;;;;;;5068341;28;20480;-77
2021/08/17 10:21:15;;;;;;;12.50;6.35;;;18.00;76.80;;;;;;5068158;28;20036;-76
2021/08/17 10:23:44;;;;;;;11.95;6.63;;;18.00;77.50;;;;;;5066953;28;20392;-75
2021/08/17 10:26:30;;;;;;;11.77;6.20;;;18.00;77.10;;;;;;5068770;28;20103;-76
2021/08/17 10:28:56;;;;;;;10.55;5.22;;;18.10;78.50;;;;;;5067543;28;20033;-78
2021/08/17 10:31:24;;;;;;;10.40;5.22;;;18.20;77.00;;;;;;5066574;28;20469;-78
2021/08/17 10:34:01;;;;;;;10.88;5.60;;;18.30;75.60;;;;;;5067426;28;20029;-77
2021/08/17 10:36:38;;;;;;;12.50;5.45;;;18.40;73.80;;;;;;5068408;28;20036;-79
2021/08/17 10:39:26;;;;;;;11.90;5.57;;;18.40;73.40;;;;;;5065383;28;20485;-79
2021/08/17 10:41:54;;;;;;;9.38;5.65;;;18.40;74.00;;;;;;5068639;28;20469;-79
2021/08/17 10:44:24;;;;;;;9.68;5.32;;;18.50;73.30;;;;;;5059140;28;20477;-79
2021/08/17 10:47:07;;;;;;;12.10;5.45;;;18.40;73.10;;;;;;5051326;28;20053;-79
2021/08/17 10:49:36;;;;;;;10.25;5.35;;;18.40;73.00;;;;;;5051953;28;20052;-78
2021/08/17 10:52:06;;;;;;;9.48;4.38;;;18.50;72.30;;;;;;5054077;28;20033;-77
2021/08/17 10:54:34;;;;;;;8.87;4.60;;;18.60;69.60;;;;;;5053416;28;20028;-77
2021/08/17 10:57:19;;;;;;;12.35;4.78;;;18.70;69.70;;;;;;5070447;28;20357;-77
2021/08/17 10:59:46;;;;;;;9.95;5.00;;;18.80;69.40;;;;;;5068773;28;20021;-77
2021/08/17 11:02:13;;;;;;;7.63;4.05;;;19.00;69.20;;;;;;5053637;28;20035;-78
2021/08/17 11:04:47;;;;;;;6.63;3.38;;;19.00;67.20;;;;;;5053081;28;20033;-78
2021/08/17 11:07:31;;;;;;;6.05;3.42;;;19.20;65.60;;;;;;5054483;28;20058;-77
2021/08/17 11:10:04;;;;;;;6.32;3.75;;;19.30;66.70;;;;;;5053262;28;20017;-78
2021/08/17 11:12:31;;;;;;;6.18;3.30;;;19.40;65.90;;;;;;5046398;28;20112;-77
2021/08/17 11:14:58;;;;;;;6.88;3.10;;;19.50;64.80;;;;;;5068966;28;20057;-77
2021/08/17 11:17:23;;;;;;;4.97;2.28;;;19.50;63.10;;;;;;5052847;28;20386;-77
2021/08/17 11:19:51;;;;;;;5.20;2.40;;;19.50;60.00;;;;;;5053471;28;20032;-76
2021/08/17 11:22:18;;;;;;;4.28;2.60;;;19.50;58.80;;;;;;5052129;28;20522;-77
2021/08/17 11:24:51;;;;;;;5.65;2.53;;;19.50;59.60;;;;;;5052944;28;20465;-76
2021/08/17 11:27:42;;;;;;;3.58;2.03;;;19.60;60.70;;;;;;5052126;28;20143;-77
2021/08/17 11:30:16;;;;;;;3.95;2.17;;;19.50;53.70;;;;;;5068938;28;20049;-78
2021/08/17 11:32:48;;;;;;;5.60;2.70;;;19.40;56.90;;;;;;5053137;28;20045;-78
2021/08/17 11:35:19;;;;;;;4.97;2.60;;;19.50;57.50;;;;;;5041283;28;20398;-78
2021/08/17 11:37:50;;;;;;;3.78;2.88;;;19.50;55.10;;;;;;5053919;28;20438;-77
2021/08/17 11:40:25;;;;;;;4.43;2.20;;;19.50;55.40;;;;;;5053189;28;20028;-77
2021/08/17 11:42:56;;;;;;;4.05;2.33;;;19.60;55.60;;;;;;5053384;28;20349;-79
2021/08/17 11:45:24;;;;;;;5.05;2.40;;;19.60;54.90;;;;;;5053576;28;20102;-78
2021/08/17 11:47:51;;;;;;;4.72;3.03;;;19.70;55.30;;;;;;5053431;28;20025;-78
2021/08/17 11:50:19;;;;;;;5.70;3.25;;;19.80;56.10;;;;;;5053105;28;20029;-78
2021/08/17 11:52:47;;;;;;;5.60;3.00;;;19.90;55.40;;;;;;5052981;28;20092;-78
2021/08/17 11:55:18;;;;;;;4.75;2.70;;;20.00;55.80;;;;;;5050906;28;20116;-78
2021/08/17 11:57:51;;;;;;;5.20;2.70;;;20.20;56.10;;;;;;5052189;28;20186;-77
2021/08/17 12:00:26;;;;;;;6.38;3.03;;;20.30;56.50;;;;;;5042433;28;20037;-76
2021/08/17 12:02:53;;;;;;;5.72;3.10;;;20.40;54.70;;;;;;5069288;28;20119;-78
2021/08/17 12:05:22;;;;;;;6.95;2.85;;;20.50;55.30;;;;;;5053793;28;20350;-79
2021/08/17 12:07:50;;;;;;;6.68;3.03;;;20.70;55.20;;;;;;5050294;28;20056;-78
2021/08/17 12:10:24;;;;;;;5.15;3.08;;;20.80;55.80;;;;;;5048349;28;20535;-78
2021/08/17 12:12:59;;;;;;;6.82;3.53;;;20.80;54.60;;;;;;5049090;28;20033;-78
2021/08/17 12:15:37;;;;;;;6.82;3.15;;;21.00;54.50;;;;;;5053628;28;20016;-78
2021/08/17 12:18:12;;;;;;;6.30;3.33;;;21.10;55.30;;;;;;5047362;28;20040;-78
2021/08/17 12:20:50;;;;;;;6.65;3.78;;;21.20;54.70;;;;;;5045537;28;20356;-77
2021/08/17 12:23:15;;;;;;;5.10;3.13;;;21.30;55.00;;;;;;5045434;28;20472;-76
2021/08/17 12:25:42;;;;;;;6.35;3.50;;;21.40;55.50;;;;;;5040907;28;20021;-76
2021/08/17 12:28:07;;;;;;;8.07;3.05;;;21.60;54.90;;;;;;5051714;28;20359;-75
2021/08/17 12:30:34;;;;;;;5.03;3.22;;;21.70;52.90;;;;;;5051973;28;20650;-78
2021/08/17 12:33:01;;;;;;;5.55;3.30;;;21.90;53.00;;;;;;5051171;28;20049;-77
2021/08/17 12:35:29;;;;;;;5.85;3.13;;;22.00;52.10;;;;;;5051232;28;20028;-77
2021/08/17 12:37:56;;;;;;;6.97;3.35;;;22.10;51.90;;;;;;5051563;28;20009;-78
2021/08/17 12:40:22;;;;;;;6.90;3.20;;;22.10;52.10;;;;;;5050759;28;20027;-77
2021/08/17 12:42:48;;;;;;;5.43;2.90;;;22.10;51.90;;;;;;5051774;28;20025;-77
2021/08/17 12:45:34;;;;;;;5.72;3.28;;;22.20;51.20;;;;;;5046996;28;20016;-77